Time;durP1;ratioP1;P1;durP2;ratioP2;P2;SDS_P1;SDS_P2;PMS_P1;PMS_P2;Temp;Humidity;BMP_temperature;BMP_pressure;BME280_temperature;BME280_humidity;BME280_pressure;Samples;Min_cycle;Max_cycle;Signal;HPM_P1;HPM_P2
2024/01/23 06:26:18;;;;;;;;;;;;;;;8.38;79.92;98476.84;4194830;27;10296;-69
2024/01/23 06:28:21;;;;;;;;;;;;;;;8.63;79.52;98463.13;4197414;28;5107;-69
2024/01/23 06:30:23;;;;;;;;;;;;;;;8.85;78.93;98475.19;4197727;28;7729;-68
2024/01/23 06:32:26;;;;;;;;;;;;;;;9.00;78.24;98473.75;4193444;28;5802;-68
2024/01/23 06:34:30;;;;;;;;;;;;;;;9.14;77.85;98488.28;4192625;28;6412;-70
2024/01/23 06:36:33;;;;;;;;;;;;;;;9.25;77.55;98482.84;4196235;28;5759;-69
2024/01/23 06:38:36;;;;;;;;;;;;;;;9.36;77.08;98483.66;4204025;28;5938;-70
2024/01/23 06:40:39;;;;;;;;;;;;;;;9.43;76.83;98487.38;4197211;28;5810;-70
2024/01/23 06:42:43;;;;;;;;;;;;;;;9.45;76.25;98493.34;4197135;28;5700;-69
2024/01/23 06:44:46;;;;;;;;;;;;;;;9.50;76.24;98494.56;4197806;28;5738;-69
2024/01/23 06:46:49;;;;;;;;;;;;;;;9.55;75.85;98502.06;4185156;28;5736;-69
2024/01/23 06:48:52;;;;;;;;;;;;;;;9.59;75.92;98503.44;4192803;28;5846;-69
2024/01/23 06:50:55;;;;;;;;;;;;;;;9.65;75.67;98508.16;4197846;28;5815;-71
2024/01/23 06:52:58;;;;;;;;;;;;;;;9.66;75.63;98501.88;4191771;28;7435;-69
2024/01/23 06:55:00;;;;;;;;;;;;;;;9.68;75.16;98502.56;4193059;28;5707;-70
2024/01/23 06:57:04;;;;;;;;;;;;;;;9.72;75.19;98511.03;4192234;28;5696;-70
2024/01/23 06:59:09;;;;;;;;;;;;;;;9.74;75.08;98517.84;4193626;28;5809;-71
2024/01/23 07:01:12;;;;;;;;;;;;;;;9.77;74.77;98527.28;4194969;28;5806;-62
2024/01/23 07:03:15;;;;;;;;;;;;;;;9.78;74.59;98537.69;4194728;28;5880;-62
2024/01/23 07:05:22;;;;;;;;;;;;;;;9.79;74.47;98530.59;4197466;28;7292;-61
2024/01/23 07:07:25;;;;;;;;;;;;;;;9.78;74.37;98521.84;4197034;28;5681;-62
2024/01/23 07:09:28;;;;;;;;;;;;;;;9.77;74.25;98519.34;4195961;28;5715;-61
2024/01/23 07:11:31;;;;;;;;;;;;;;;9.71;73.51;98531.31;4191822;28;5731;-62
2024/01/23 07:13:34;;;;;;;;;;;;;;;9.69;73.89;98528.00;4189028;28;5933;-61
2024/01/23 07:15:40;;;;;;;;;;;;;;;9.72;74.00;98522.41;4192486;28;6041;-61
2024/01/23 07:17:43;;;;;;;;;;;;;;;9.75;73.60;98526.59;4196681;28;5774;-61
2024/01/23 07:19:46;;;;;;;;;;;;;;;9.76;73.88;98531.72;4196349;28;5079;-63
2024/01/23 07:21:49;;;;;;;;;;;;;;;9.76;73.50;98531.72;4196735;28;5719;-62
2024/01/23 07:23:52;;;;;;;;;;;;;;;9.81;73.24;98539.22;4194321;28;5715;-61
2024/01/23 07:25:55;;;;;;;;;;;;;;;9.82;73.29;98554.06;4192279;28;5686;-62
2024/01/23 07:27:58;;;;;;;;;;;;;;;9.83;72.42;98551.28;4185953;28;5736;-62
2024/01/23 07:30:00;;;;;;;;;;;;;;;9.83;72.75;98553.94;4185530;28;5723;-61
2024/01/23 07:32:05;;;;;;;;;;;;;;;9.81;73.00;98552.41;4182281;28;5797;-61
2024/01/23 07:34:08;;;;;;;;;;;;;;;9.83;72.71;98559.22;4185762;28;5723;-63
2024/01/23 07:36:12;;;;;;;;;;;;;;;9.85;72.98;98573.13;4185407;28;5807;-62
2024/01/23 07:38:15;;;;;;;;;;;;;;;9.87;72.43;98589.66;4185790;28;6800;-62
2024/01/23 07:40:18;;;;;;;;;;;;;;;9.87;72.58;98586.19;4183895;28;5830;-62
2024/01/23 07:42:21;;;;;;;;;;;;;;;9.86;72.49;98588.00;4185526;28;5766;-62
2024/01/23 07:44:24;;;;;;;;;;;;;;;9.86;72.24;98598.56;4185200;28;5881;-62
2024/01/23 07:46:27;;;;;;;;;;;;;;;9.84;72.14;98597.84;4185172;28;5695;-62
2024/01/23 07:48:32;;;;;;;;;;;;;;;9.86;72.11;98600.38;4185198;28;6400;-63
2024/01/23 07:50:35;;;;;;;;;;;;;;;9.86;71.88;98606.50;4184710;28;5791;-62
2024/01/23 07:52:38;;;;;;;;;;;;;;;9.86;71.89;98609.13;4185332;28;5719;-62
2024/01/23 07:54:41;;;;;;;;;;;;;;;9.86;71.76;98609.13;4184829;28;5732;-62
2024/01/23 07:56:44;;;;;;;;;;;;;;;9.85;71.41;98611.88;4183893;28;5774;-62
2024/01/23 07:58:48;;;;;;;;;;;;;;;9.84;71.47;98602.31;4181029;28;5791;-62
2024/01/23 08:00:50;;;;;;;;;;;;;;;9.85;71.23;98604.81;4182604;28;5728;-62
2024/01/23 08:02:52;;;;;;;;;;;;;;;9.88;71.41;98606.34;4185510;28;5234;-62
2024/01/23 08:04:57;;;;;;;;;;;;;;;9.89;71.22;98613.28;4185390;28;5707;-62
2024/01/23 08:07:00;;;;;;;;;;;;;;;9.90;71.06;98604.38;4185220;28;5825;-62
2024/01/23 08:09:04;;;;;;;;;;;;;;;9.91;71.32;98611.31;4184711;28;5782;-62
2024/01/23 08:11:06;;;;;;;;;;;;;;;9.93;71.25;98612.00;4185135;28;5794;-63
2024/01/23 08:13:09;;;;;;;;;;;;;;;9.94;71.30;98608.38;4183570;28;6240;-62
2024/01/23 08:15:13;;;;;;;;;;;;;;;9.95;71.17;98610.06;4183613;28;5731;-62
2024/01/23 08:17:18;;;;;;;;;;;;;;;9.95;71.09;98617.97;4185067;28;6405;-61
2024/01/23 08:19:21;;;;;;;;;;;;;;;9.96;71.09;98616.16;4184432;28;5817;-61
2024/01/23 08:21:25;;;;;;;;;;;;;;;9.98;71.26;98627.44;4185224;28;5715;-62
2024/01/23 08:23:29;;;;;;;;;;;;;;;9.98;71.12;98627.44;4180396;28;5732;-62
2024/01/23 08:25:32;;;;;;;;;;;;;;;9.97;70.99;98628.44;4182255;28;5750;-62
2024/01/23 08:27:35;;;;;;;;;;;;;;;9.96;70.81;98634.66;4185263;28;5816;-62
2024/01/23 08:29:38;;;;;;;;;;;;;;;9.93;70.92;98630.50;4185231;28;6491;-62
2024/01/23 08:31:42;;;;;;;;;;;;;;;9.91;70.98;98635.94;4184783;28;5727;-63
2024/01/23 08:33:44;;;;;;;;;;;;;;;9.91;70.71;98638.56;4185185;28;5791;-62
2024/01/23 08:35:48;;;;;;;;;;;;;;;9.89;70.64;98635.25;4185015;28;5699;-62
2024/01/23 08:37:52;;;;;;;;;;;;;;;9.87;70.73;98642.50;4183961;28;5712;-63
2024/01/23 08:39:55;;;;;;;;;;;;;;;9.88;70.95;98644.16;4184288;28;5782;-62
2024/01/23 08:41:59;;;;;;;;;;;;;;;9.89;70.77;98637.91;4180218;28;5708;-62
2024/01/23 08:44:02;;;;;;;;;;;;;;;9.91;70.57;98632.47;4183040;28;5805;-62
2024/01/23 08:46:05;;;;;;;;;;;;;;;9.91;70.61;98633.28;4184791;28;5706;-61
2024/01/23 08:48:09;;;;;;;;;;;;;;;9.92;70.58;98629.66;4184749;28;5715;-61
2024/01/23 08:50:12;;;;;;;;;;;;;;;9.92;70.34;98627.03;4184517;28;5822;-62
2024/01/23 08:52:17;;;;;;;;;;;;;;;9.92;70.60;98637.59;4184063;28;5773;-63
2024/01/23 08:54:21;;;;;;;;;;;;;;;9.93;70.59;98641.91;4180283;28;5740;-62
2024/01/23 08:56:25;;;;;;;;;;;;;;;9.93;70.37;98636.63;4176655;28;5703;-61
2024/01/23 08:58:28;;;;;;;;;;;;;;;9.93;70.45;98641.06;4182299;28;5832;-62
2024/01/23 09:00:32;;;;;;;;;;;;;;;9.93;70.25;98641.91;4184110;28;5700;-61
2024/01/23 09:02:35;;;;;;;;;;;;;;;9.93;70.23;98641.06;4178987;28;6424;-61
2024/01/23 09:04:38;;;;;;;;;;;;;;;9.90;70.37;98631.63;4184229;28;5719;-62
2024/01/23 09:06:41;;;;;;;;;;;;;;;9.92;70.51;98645.53;4183846;28;5706;-61
2024/01/23 09:08:44;;;;;;;;;;;;;;;9.94;70.33;98648.03;4184485;28;5817;-61
2024/01/23 09:10:49;;;;;;;;;;;;;;;9.95;70.26;98647.03;4183824;28;5823;-61
2024/01/23 09:12:53;;;;;;;;;;;;;;;9.96;70.15;98648.69;4181497;28;5835;-61
2024/01/23 09:14:56;;;;;;;;;;;;;;;10.01;70.24;98643.00;4184038;28;5703;-62
2024/01/23 09:16:59;;;;;;;;;;;;;;;10.02;70.40;98637.56;4183968;28;5849;-61
2024/01/23 09:19:03;;;;;;;;;;;;;;;10.05;70.38;98639.09;4184631;28;5714;-62
2024/01/23 09:21:06;;;;;;;;;;;;;;;10.07;70.19;98639.75;4183502;28;5147;-62
2024/01/23 09:23:10;;;;;;;;;;;;;;;10.08;69.99;98647.56;4183555;28;5768;-61
2024/01/23 09:25:13;;;;;;;;;;;;;;;10.11;70.23;98647.28;4183217;28;5726;-62
2024/01/23 09:27:17;;;;;;;;;;;;;;;10.12;70.22;98645.47;4182563;28;5755;-60
2024/01/23 09:29:21;;;;;;;;;;;;;;;10.13;69.82;98636.56;4169948;28;5709;-71
2024/01/23 09:31:24;;;;;;;;;;;;;;;10.13;70.20;98633.91;4183536;28;5779;-65
2024/01/23 09:33:27;;;;;;;;;;;;;;;10.14;69.62;98638.22;4183884;28;5817;-70
2024/01/23 09:35:30;;;;;;;;;;;;;;;10.17;69.97;98653.78;4176586;28;5914;-72
2024/01/23 09:37:34;;;;;;;;;;;;;;;10.16;69.86;98660.03;4184158;28;5715;-72
2024/01/23 09:39:37;;;;;;;;;;;;;;;10.18;69.51;98660.72;4183820;28;5797;-66
2024/01/23 09:41:45;;;;;;;;;;;;;;;10.17;69.46;98664.34;4183415;28;5933;-68
2024/01/23 09:43:51;;;;;;;;;;;;;;;10.17;69.48;98673.13;4183394;28;5797;-65
2024/01/23 09:45:56;;;;;;;;;;;;;;;10.18;69.21;98671.28;4183723;28;5865;-68
2024/01/23 09:48:00;;;;;;;;;;;;;;;10.22;69.09;98667.44;4184106;28;5734;-66
2024/01/23 09:50:03;;;;;;;;;;;;;;;10.24;69.16;98670.75;4183224;28;5716;-70
2024/01/23 09:52:08;;;;;;;;;;;;;;;10.25;69.23;98667.13;4182981;28;5720;-69
2024/01/23 09:54:12;;;;;;;;;;;;;;;10.27;69.24;98662.53;4183861;28;5802;-62
2024/01/23 09:56:16;;;;;;;;;;;;;;;10.30;68.84;98659.59;4182041;28;5936;-67
2024/01/23 09:58:20;;;;;;;;;;;;;;;10.25;68.88;98661.84;4176288;28;5715;-70
2024/01/23 10:00:25;;;;;;;;;;;;;;;10.25;68.71;98661.84;4183528;28;5703;-64
2024/01/23 10:02:30;;;;;;;;;;;;;;;10.23;68.88;98669.09;4183707;28;5885;-72
2024/01/23 10:04:33;;;;;;;;;;;;;;;10.23;68.61;98658.53;4184029;28;5866;-65
2024/01/23 10:06:38;;;;;;;;;;;;;;;10.28;68.89;98658.91;4179529;28;5719;-69
2024/01/23 10:08:41;;;;;;;;;;;;;;;10.30;68.77;98649.03;4184172;28;5696;-68
2024/01/23 10:10:44;;;;;;;;;;;;;;;10.32;68.66;98649.72;4183639;28;5719;-69
2024/01/23 10:12:48;;;;;;;;;;;;;;;10.35;68.41;98651.25;4177566;28;5831;-66
2024/01/23 10:14:52;;;;;;;;;;;;;;;10.39;68.47;98649.97;4181905;28;5818;-69
2024/01/23 10:16:57;;;;;;;;;;;;;;;10.42;68.35;98642.59;4167953;28;5859;-73
2024/01/23 10:19:00;;;;;;;;;;;;;;;10.42;68.37;98647.88;4176949;28;5809;-62
2024/01/23 10:21:04;;;;;;;;;;;;;;;10.43;68.01;98638.97;4179825;28;6528;-72
2024/01/23 10:23:06;;;;;;;;;;;;;;;10.47;68.13;98642.13;4172460;28;5735;-71
2024/01/23 10:25:11;;;;;;;;;;;;;;;10.52;67.90;98644.31;4177632;28;5781;-72
2024/01/23 10:27:14;;;;;;;;;;;;;;;10.52;68.13;98641.69;4177237;28;5790;-68
2024/01/23 10:29:17;;;;;;;;;;;;;;;10.55;67.93;98646.69;4180685;28;5769;-71
2024/01/23 10:31:19;;;;;;;;;;;;;;;10.55;67.67;98649.34;4182188;28;5793;-70
2024/01/23 10:33:25;;;;;;;;;;;;;;;10.54;67.92;98642.38;4181500;28;5805;-71
2024/01/23 10:35:28;;;;;;;;;;;;;;;10.55;67.66;98636.94;4182517;28;5710;-67
2024/01/23 10:37:31;;;;;;;;;;;;;;;10.58;67.91;98639.28;4183114;28;5774;-72
2024/01/23 10:39:35;;;;;;;;;;;;;;;10.59;67.96;98637.47;4183253;28;5798;-70
2024/01/23 10:41:41;;;;;;;;;;;;;;;10.63;67.64;98633.53;4182333;28;5740;-66
2024/01/23 10:43:46;;;;;;;;;;;;;;;10.64;67.78;98629.91;4181893;28;5686;-63
2024/01/23 10:45:53;;;;;;;;;;;;;;;10.66;67.81;98623.53;4183407;28;5708;-66
2024/01/23 10:47:57;;;;;;;;;;;;;;;10.67;67.68;98619.88;4183405;28;5817;-73
2024/01/23 10:50:01;;;;;;;;;;;;;;;10.68;67.54;98618.06;4182099;28;5718;-65
2024/01/23 10:52:09;;;;;;;;;;;;;;;10.66;67.42;98617.41;4183519;28;5788;-71
2024/01/23 10:54:19;;;;;;;;;;;;;;;10.65;67.11;98623.66;4182686;28;5715;-66
2024/01/23 10:56:24;;;;;;;;;;;;;;;10.68;66.97;98612.78;4177560;28;5763;-68
2024/01/23 10:58:30;;;;;;;;;;;;;;;10.69;67.06;98614.44;4166774;28;5834;-72
2024/01/23 11:00:34;;;;;;;;;;;;;;;10.70;66.80;98614.28;4179766;28;5711;-66
2024/01/23 11:02:39;;;;;;;;;;;;;;;10.73;66.92;98615.81;4185644;28;5861;-69
2024/01/23 11:04:42;;;;;;;;;;;;;;;10.75;66.51;98613.84;4186221;28;5714;-64
2024/01/23 11:06:54;;;;;;;;;;;;;;;10.78;66.51;98611.75;4186475;28;5719;-71
2024/01/23 11:09:03;;;;;;;;;;;;;;;10.80;66.57;98611.59;4183908;28;5763;-70
2024/01/23 11:11:15;;;;;;;;;;;;;;;10.79;66.46;98602.81;4185339;28;5882;-66
2024/01/23 11:13:31;;;;;;;;;;;;;;;10.75;66.31;98598.78;4173761;28;5747;-69
2024/01/23 11:15:35;;;;;;;;;;;;;;;10.76;66.39;98602.28;4172280;28;5881;-71
2024/01/23 11:17:39;;;;;;;;;;;;;;;10.75;66.12;98596.16;4185458;28;5724;-65
2024/01/23 11:19:43;;;;;;;;;;;;;;;10.77;66.09;98583.63;4185935;28;5715;-65
2024/01/23 11:22:01;;;;;;;;;;;;;;;10.79;66.15;98588.75;4186320;28;5807;-65
2024/01/23 11:24:05;;;;;;;;;;;;;;;10.81;66.21;98578.03;4181728;28;5811;-63
2024/01/23 11:26:15;;;;;;;;;;;;;;;10.82;65.93;98562.00;4183410;28;5718;-61
2024/01/23 11:28:18;;;;;;;;;;;;;;;10.87;66.16;98557.06;4177458;28;5727;-62
2024/01/23 11:30:21;;;;;;;;;;;;;;;10.92;66.00;98557.47;4183843;28;5794;-62
2024/01/23 11:32:25;;;;;;;;;;;;;;;10.96;66.03;98550.03;4185628;28;5758;-62
2024/01/23 11:34:39;;;;;;;;;;;;;;;10.98;65.73;98548.91;4185922;28;5883;-61
2024/01/23 11:36:44;;;;;;;;;;;;;;;11.01;66.00;98550.44;4186162;28;5804;-61
2024/01/23 11:38:50;;;;;;;;;;;;;;;11.01;65.72;98547.78;4184374;28;7307;-61
2024/01/23 11:40:54;;;;;;;;;;;;;;;11.01;65.62;98538.03;4184829;28;5719;-63
2024/01/23 11:42:59;;;;;;;;;;;;;;;11.03;65.69;98543.16;4184986;28;6552;-63
2024/01/23 11:45:23;;;;;;;;;;;;;;;11.08;65.87;98538.22;4185329;28;5708;-63
2024/01/23 11:47:28;;;;;;;;;;;;;;;11.13;65.62;98535.13;4176375;28;6203;-65
2024/01/23 11:49:32;;;;;;;;;;;;;;;11.15;65.55;98541.09;4185264;28;5809;-64
2024/01/23 11:51:36;;;;;;;;;;;;;;;11.17;65.10;98542.59;4185518;28;6785;-64
2024/01/23 11:53:40;;;;;;;;;;;;;;;11.19;65.05;98535.31;4185464;28;5721;-61
2024/01/23 11:55:45;;;;;;;;;;;;;;;11.22;65.30;98534.22;4185739;28;5742;-64
2024/01/23 11:57:49;;;;;;;;;;;;;;;11.24;64.93;98533.06;4183679;28;5795;-62
2024/01/23 11:59:52;;;;;;;;;;;;;;;11.26;65.02;98527.63;4184334;28;5698;-62
2024/01/23 12:01:55;;;;;;;;;;;;;;;11.28;65.07;98528.28;4184702;28;5821;-61
2024/01/23 12:03:59;;;;;;;;;;;;;;;11.30;64.85;98529.78;4184523;28;5822;-62
2024/01/23 12:06:03;;;;;;;;;;;;;;;11.32;65.23;98529.63;4184964;28;5707;-62
2024/01/23 12:08:06;;;;;;;;;;;;;;;11.34;64.80;98522.38;4184941;28;6417;-62
2024/01/23 12:10:11;;;;;;;;;;;;;;;11.35;64.73;98524.88;4183951;28;5527;-62
2024/01/23 12:12:16;;;;;;;;;;;;;;;11.34;64.72;98522.38;4184859;28;7733;-62
2024/01/23 12:14:19;;;;;;;;;;;;;;;11.36;64.13;98533.63;4183355;28;5798;-62
2024/01/23 12:16:22;;;;;;;;;;;;;;;11.30;63.59;98531.59;4181620;28;5100;-62
2024/01/23 12:18:25;;;;;;;;;;;;;;;11.25;64.19;98533.91;4183712;28;5703;-62
2024/01/23 12:20:27;;;;;;;;;;;;;;;11.23;64.16;98535.88;4184217;28;5766;-61
2024/01/23 12:22:31;;;;;;;;;;;;;;;11.23;64.38;98536.69;4183896;28;5708;-61
2024/01/23 12:24:33;;;;;;;;;;;;;;;11.25;64.32;98541.84;4183947;28;6085;-62
2024/01/23 12:26:37;;;;;;;;;;;;;;;11.25;64.55;98537.38;4184901;28;5737;-62
2024/01/23 12:28:42;;;;;;;;;;;;;;;11.28;64.53;98542.34;4181094;28;5811;-62
2024/01/23 12:30:45;;;;;;;;;;;;;;;11.29;64.56;98532.59;4181731;28;5854;-63
2024/01/23 12:32:49;;;;;;;;;;;;;;;11.30;64.36;98521.00;4174829;28;5817;-63
2024/01/23 12:34:52;;;;;;;;;;;;;;;11.32;63.94;98508.44;4184385;28;5742;-61
2024/01/23 12:36:59;;;;;;;;;;;;;;;11.31;63.89;98496.19;4182328;28;7281;-63
2024/01/23 12:39:03;;;;;;;;;;;;;;;11.32;64.19;98509.28;4179483;28;5707;-63
2024/01/23 12:41:07;;;;;;;;;;;;;;;11.33;63.88;98504.84;4184402;28;5730;-63
2024/01/23 12:43:12;;;;;;;;;;;;;;;11.33;63.90;98521.56;4179202;28;5707;-61
2024/01/23 12:45:18;;;;;;;;;;;;;;;11.35;64.35;98539.94;4178717;28;6507;-61
2024/01/23 12:47:22;;;;;;;;;;;;;;;11.36;64.29;98533.63;4182879;28;5727;-61
2024/01/23 12:49:25;;;;;;;;;;;;;;;11.38;63.83;98547.56;4184439;28;5728;-62
2024/01/23 12:51:30;;;;;;;;;;;;;;;11.38;63.89;98544.91;4183098;28;5910;-62
2024/01/23 12:53:36;;;;;;;;;;;;;;;11.39;64.09;98543.91;4184398;28;5711;-63
2024/01/23 12:55:39;;;;;;;;;;;;;;;11.40;63.96;98542.94;4183314;28;5803;-63
2024/01/23 12:57:43;;;;;;;;;;;;;;;11.40;63.86;98545.56;4184674;28;5714;-62
2024/01/23 12:59:46;;;;;;;;;;;;;;;11.41;63.85;98533.16;4176850;28;5788;-62
2024/01/23 13:01:50;;;;;;;;;;;;;;;11.43;64.02;98524.06;4181909;28;5850;-62
2024/01/23 13:03:53;;;;;;;;;;;;;;;11.42;63.87;98533.00;4180358;28;5781;-62
2024/01/23 13:05:57;;;;;;;;;;;;;;;11.42;63.89;98517.13;4183635;28;5755;-61
2024/01/23 13:07:59;;;;;;;;;;;;;;;11.44;63.85;98528.41;4183847;28;5727;-62
2024/01/23 13:10:04;;;;;;;;;;;;;;;11.46;63.92;98521.13;4182452;28;5718;-62
2024/01/23 13:12:09;;;;;;;;;;;;;;;11.47;63.39;98512.19;4181035;28;5109;-62
2024/01/23 13:14:12;;;;;;;;;;;;;;;11.46;63.56;98507.88;4181521;28;5738;-62
2024/01/23 13:16:15;;;;;;;;;;;;;;;11.47;63.73;98514.84;4172114;28;5908;-62
2024/01/23 13:18:21;;;;;;;;;;;;;;;11.49;63.32;98507.56;4183229;28;5910;-62
2024/01/23 13:20:25;;;;;;;;;;;;;;;11.50;63.71;98519.00;4181128;28;5835;-62
2024/01/23 13:22:31;;;;;;;;;;;;;;;11.50;63.25;98514.53;4183782;28;5722;-62
2024/01/23 13:24:35;;;;;;;;;;;;;;;11.49;63.48;98510.22;4182803;28;5992;-62
2024/01/23 13:26:38;;;;;;;;;;;;;;;11.50;63.22;98506.56;4182932;28;5703;-62
2024/01/23 13:28:41;;;;;;;;;;;;;;;11.50;63.15;98503.09;4182211;28;5727;-63
2024/01/23 13:30:44;;;;;;;;;;;;;;;11.49;63.23;98504.91;4182530;28;6654;-62
2024/01/23 13:32:53;;;;;;;;;;;;;;;11.50;63.06;98501.28;4182590;28;5817;-62
2024/01/23 13:34:58;;;;;;;;;;;;;;;11.49;63.11;98498.78;4183857;28;5727;-62
2024/01/23 13:37:03;;;;;;;;;;;;;;;11.50;63.02;98500.44;4183482;28;5861;-61
2024/01/23 13:39:06;;;;;;;;;;;;;;;11.49;63.29;98504.09;4183045;28;5897;-62
2024/01/23 13:41:10;;;;;;;;;;;;;;;11.50;63.04;98495.97;4183699;28;5707;-62
2024/01/23 13:43:14;;;;;;;;;;;;;;;11.51;62.97;98491.50;4175328;28;5703;-62
2024/01/23 13:45:17;;;;;;;;;;;;;;;11.49;62.08;98499.63;4175413;28;5693;-62
2024/01/23 13:47:19;;;;;;;;;;;;;;;11.48;62.32;98497.13;4177098;28;6063;-62
2024/01/23 13:49:32;;;;;;;;;;;;;;;11.47;62.70;98498.94;4182440;28;5772;-62
2024/01/23 13:51:37;;;;;;;;;;;;;;;11.45;62.53;98503.59;4182687;28;5794;-62
2024/01/23 13:53:40;;;;;;;;;;;;;;;11.46;62.89;98505.25;4183486;28;5723;-62
2024/01/23 13:55:42;;;;;;;;;;;;;;;11.46;62.54;98499.94;4183200;28;5723;-62
2024/01/23 13:57:47;;;;;;;;;;;;;;;11.47;62.69;98500.78;4183376;28;5707;-62
2024/01/23 13:59:49;;;;;;;;;;;;;;;11.47;62.33;98500.78;4179832;28;5790;-63
2024/01/23 14:01:52;;;;;;;;;;;;;;;11.47;62.50;98506.91;4182594;28;5715;-61
2024/01/23 14:03:55;;;;;;;;;;;;;;;11.46;62.56;98521.13;4178045;28;5715;-62
2024/01/23 14:05:58;;;;;;;;;;;;;;;11.47;62.34;98519.31;4181059;28;5824;-62
2024/01/23 14:08:03;;;;;;;;;;;;;;;11.46;62.44;98513.19;4182060;28;5813;-63
2024/01/23 14:10:08;;;;;;;;;;;;;;;11.46;62.63;98499.13;4182409;28;5739;-61
2024/01/23 14:12:11;;;;;;;;;;;;;;;11.46;62.52;98504.41;4183220;28;5748;-62
2024/01/23 14:14:16;;;;;;;;;;;;;;;11.47;62.25;98506.06;4181993;28;5977;-61
2024/01/23 14:16:19;;;;;;;;;;;;;;;11.46;62.03;98497.28;4180196;28;6532;-62
2024/01/23 14:18:22;;;;;;;;;;;;;;;11.46;62.02;98497.28;4182938;28;5703;-62
2024/01/23 14:20:24;;;;;;;;;;;;;;;11.45;62.26;98495.63;4182009;28;5777;-63
2024/01/23 14:22:27;;;;;;;;;;;;;;;11.46;62.26;98509.72;4180425;28;5735;-62
2024/01/23 14:24:32;;;;;;;;;;;;;;;11.46;62.31;98507.88;4176892;28;5716;-62
2024/01/23 14:26:34;;;;;;;;;;;;;;;11.47;62.02;98514.00;4182157;28;5952;-62
2024/01/23 14:28:37;;;;;;;;;;;;;;;11.46;62.29;98521.13;4180194;28;5707;-62
2024/01/23 14:30:41;;;;;;;;;;;;;;;11.46;62.14;98529.06;4179640;28;5783;-63
2024/01/23 14:32:43;;;;;;;;;;;;;;;11.48;61.96;98524.44;4181380;28;5823;-63
2024/01/23 14:34:47;;;;;;;;;;;;;;;11.49;62.29;98520.81;4182295;28;5752;-63
2024/01/23 14:36:51;;;;;;;;;;;;;;;11.50;62.08;98525.13;4183424;28;5693;-64
2024/01/23 14:38:55;;;;;;;;;;;;;;;11.49;61.82;98512.88;4182693;28;5783;-63
2024/01/23 14:41:01;;;;;;;;;;;;;;;11.48;61.48;98505.91;4185106;28;5711;-63
2024/01/23 14:43:04;;;;;;;;;;;;;;;11.49;61.23;98504.09;4180105;28;6578;-62
2024/01/23 14:45:09;;;;;;;;;;;;;;;11.47;61.20;98501.59;4172448;28;5797;-63
2024/01/23 14:47:17;;;;;;;;;;;;;;;11.47;61.25;98501.59;4182024;28;5815;-63
2024/01/23 14:49:22;;;;;;;;;;;;;;;11.47;61.26;98500.78;4184502;28;5802;-63
2024/01/23 14:51:26;;;;;;;;;;;;;;;11.47;61.36;98495.47;4183887;28;5743;-63
2024/01/23 14:53:29;;;;;;;;;;;;;;;11.48;61.30;98495.31;4182461;28;5064;-63
2024/01/23 14:55:34;;;;;;;;;;;;;;;11.45;60.92;98487.69;4181767;28;5715;-63
2024/01/23 14:57:39;;;;;;;;;;;;;;;11.45;60.97;98495.63;4182625;28;5715;-63
2024/01/23 14:59:44;;;;;;;;;;;;;;;11.43;61.26;98502.88;4183910;28;5790;-63
2024/01/23 15:01:48;;;;;;;;;;;;;;;11.43;61.41;98505.53;4175122;28;5752;-63
2024/01/23 15:03:53;;;;;;;;;;;;;;;11.40;61.30;98513.78;4181474;28;5778;-63
2024/01/23 15:05:57;;;;;;;;;;;;;;;11.39;61.32;98530.69;4178755;28;6010;-63
2024/01/23 15:08:01;;;;;;;;;;;;;;;11.40;61.26;98536.81;4179206;28;5747;-62
2024/01/23 15:10:06;;;;;;;;;;;;;;;11.36;61.48;98531.81;4176300;28;5803;-63
2024/01/23 15:12:09;;;;;;;;;;;;;;;11.38;61.36;98534.31;4183321;28;5918;-62
2024/01/23 15:14:14;;;;;;;;;;;;;;;11.36;61.64;98542.41;4184474;28;7717;-62
2024/01/23 15:16:17;;;;;;;;;;;;;;;11.35;61.59;98550.53;4173148;28;5886;-63
2024/01/23 15:18:21;;;;;;;;;;;;;;;11.34;61.73;98543.56;4182056;28;5723;-63
2024/01/23 15:20:23;;;;;;;;;;;;;;;11.33;61.87;98533.97;4180829;28;5799;-63
2024/01/23 15:22:27;;;;;;;;;;;;;;;11.34;61.82;98539.09;4183567;28;5838;-63
2024/01/23 15:24:30;;;;;;;;;;;;;;;11.33;61.85;98529.50;4177916;28;5198;-63
2024/01/23 15:26:33;;;;;;;;;;;;;;;11.32;61.62;98538.41;4184558;28;5855;-63
2024/01/23 15:28:36;;;;;;;;;;;;;;;11.32;61.97;98545.50;4180291;28;5896;-63
2024/01/23 15:30:40;;;;;;;;;;;;;;;11.32;61.89;98540.22;4184006;28;5823;-63
2024/01/23 15:32:44;;;;;;;;;;;;;;;11.33;61.67;98541.91;4181863;28;5806;-63
2024/01/23 15:34:48;;;;;;;;;;;;;;;11.32;61.76;98541.03;4180556;28;5888;-62
2024/01/23 15:36:52;;;;;;;;;;;;;;;11.31;61.92;98534.09;4182964;28;5793;-63
2024/01/23 15:38:56;;;;;;;;;;;;;;;11.31;62.09;98535.91;4180305;28;5800;-63
2024/01/23 15:40:58;;;;;;;;;;;;;;;11.31;61.83;98527.97;4181373;28;5715;-64
2024/01/23 15:43:01;;;;;;;;;;;;;;;11.32;62.06;98537.56;4184005;28;5932;-62
2024/01/23 15:45:06;;;;;;;;;;;;;;;11.32;61.96;98525.16;4184136;28;5853;-63
2024/01/23 15:47:11;;;;;;;;;;;;;;;11.32;62.11;98522.50;4183212;28;5898;-63
2024/01/23 15:49:16;;;;;;;;;;;;;;;11.34;62.02;98509.13;4182872;28;5782;-63
2024/01/23 15:51:20;;;;;;;;;;;;;;;11.34;61.77;98511.78;4183116;28;5817;-62
2024/01/23 15:53:25;;;;;;;;;;;;;;;11.34;62.00;98519.72;4183437;28;5099;-63
2024/01/23 15:55:28;;;;;;;;;;;;;;;11.34;61.81;98509.13;4183219;28;5707;-63
2024/01/23 15:57:30;;;;;;;;;;;;;;;11.33;62.02;98516.25;4184240;28;5723;-62
2024/01/23 15:59:33;;;;;;;;;;;;;;;11.34;62.05;98517.09;4179806;28;5870;-62
2024/01/23 16:01:37;;;;;;;;;;;;;;;11.35;61.84;98521.38;4182785;28;5927;-63
2024/01/23 16:03:42;;;;;;;;;;;;;;;11.35;61.92;98539.94;4184590;28;5775;-62
2024/01/23 16:05:45;;;;;;;;;;;;;;;11.35;61.81;98556.66;4179826;28;5715;-62
2024/01/23 16:07:50;;;;;;;;;;;;;;;11.35;62.00;98566.41;4184547;28;5715;-63
2024/01/23 16:09:53;;;;;;;;;;;;;;;11.37;61.82;98559.13;4183647;28;5707;-62
2024/01/23 16:11:57;;;;;;;;;;;;;;;11.35;61.80;98543.41;4185038;28;5719;-61
2024/01/23 16:13:59;;;;;;;;;;;;;;;11.36;61.84;98537.13;4180671;28;5896;-62
2024/01/23 16:16:03;;;;;;;;;;;;;;;11.36;61.90;98525.69;4179625;28;5786;-62
2024/01/23 16:18:06;;;;;;;;;;;;;;;11.36;61.67;98537.13;4185389;28;5956;-62
2024/01/23 16:20:12;;;;;;;;;;;;;;;11.36;61.81;98536.28;4183000;28;5812;-62
2024/01/23 16:22:15;;;;;;;;;;;;;;;11.36;61.74;98536.28;4184105;28;5739;-62
2024/01/23 16:24:18;;;;;;;;;;;;;;;11.37;61.99;98522.06;4183039;28;5798;-62
2024/01/23 16:26:21;;;;;;;;;;;;;;;11.37;61.62;98522.06;4184399;28;5850;-62
2024/01/23 16:28:24;;;;;;;;;;;;;;;11.37;61.67;98532.66;4184021;28;5862;-63
2024/01/23 16:30:27;;;;;;;;;;;;;;;11.38;61.53;98545.72;4183771;28;5896;-61
2024/01/23 16:32:32;;;;;;;;;;;;;;;11.39;61.49;98551.84;4181531;28;5922;-62
2024/01/23 16:34:35;;;;;;;;;;;;;;;11.38;61.49;98548.38;4182818;28;5881;-63
2024/01/23 16:36:41;;;;;;;;;;;;;;;11.40;61.72;98544.75;4181708;28;5862;-62
2024/01/23 16:38:44;;;;;;;;;;;;;;;11.40;61.53;98542.94;4183553;28;6068;-62
2024/01/23 16:40:47;;;;;;;;;;;;;;;11.39;61.51;98546.56;4180344;28;5802;-61
2024/01/23 16:42:51;;;;;;;;;;;;;;;11.40;61.39;98548.22;4184162;28;5708;-62
2024/01/23 16:44:54;;;;;;;;;;;;;;;11.40;60.99;98542.94;4183558;28;5719;-61
2024/01/23 16:46:57;;;;;;;;;;;;;;;11.41;61.10;98546.41;4184168;28;5723;-61
2024/01/23 16:49:00;;;;;;;;;;;;;;;11.40;61.33;98539.44;4182012;28;5850;-62
2024/01/23 16:51:04;;;;;;;;;;;;;;;11.42;61.41;98548.06;4183634;28;5839;-62
2024/01/23 16:53:08;;;;;;;;;;;;;;;11.43;61.09;98553.19;4177061;28;5723;-62
2024/01/23 16:55:12;;;;;;;;;;;;;;;11.42;61.33;98548.88;4183940;28;5832;-63
2024/01/23 16:57:15;;;;;;;;;;;;;;;11.41;61.36;98555.19;4183454;28;5813;-62
2024/01/23 16:59:17;;;;;;;;;;;;;;;11.40;61.28;98573.88;4179564;28;6405;-62
2024/01/23 17:01:20;;;;;;;;;;;;;;;11.40;61.15;98579.16;4178078;28;5950;-62
2024/01/23 17:03:23;;;;;;;;;;;;;;;11.38;61.14;98572.22;4183376;28;5809;-62
2024/01/23 17:05:26;;;;;;;;;;;;;;;11.39;61.47;98567.75;4180250;28;5813;-63
2024/01/23 17:07:28;;;;;;;;;;;;;;;11.38;61.39;98566.91;4182477;28;5715;-63
2024/01/23 17:09:32;;;;;;;;;;;;;;;11.37;61.40;98572.38;4182125;28;5711;-62
2024/01/23 17:11:35;;;;;;;;;;;;;;;11.38;61.25;98574.03;4180356;28;5858;-61
2024/01/23 17:13:38;;;;;;;;;;;;;;;11.36;61.63;98579.47;4180537;28;5801;-63
2024/01/23 17:15:41;;;;;;;;;;;;;;;11.35;61.31;98591.06;4183142;28;5900;-63
2024/01/23 17:17:44;;;;;;;;;;;;;;;11.35;61.51;98593.72;4183006;28;5708;-63
2024/01/23 17:19:47;;;;;;;;;;;;;;;11.34;61.28;98597.34;4179770;28;5880;-62
2024/01/23 17:21:56;;;;;;;;;;;;;;;11.35;61.30;98608.78;4183694;28;5716;-61